Time;durP1;ratioP1;P1;durP2;ratioP2;P2;SDS_P1;SDS_P2;PMS_P1;PMS_P2;Temp;Humidity;BMP_temperature;BMP_pressure;BME280_temperature;BME280_humidity;BME280_pressure;Samples;Min_cycle;Max_cycle;Signal;HPM_P1;HPM_P2
2022/08/07 00:00:57;;;;;;;;;;;16.50;97.90;;;;;;4415169;32;19956;-73
2022/08/07 00:03:24;;;;;;;;;;;16.30;98.40;;;;;;4415732;32;19953;-73
2022/08/07 00:05:51;;;;;;;;;;;16.20;98.50;;;;;;4405914;32;19951;-73
2022/08/07 00:08:17;;;;;;;;;;;16.20;98.70;;;;;;4401530;32;20053;-73
2022/08/07 00:10:43;;;;;;;;;;;16.10;98.80;;;;;;4400378;32;19953;-73
2022/08/07 00:13:08;;;;;;;;;;;16.30;98.70;;;;;;4395998;32;19949;-73
2022/08/07 00:15:34;;;;;;;;;;;16.30;98.70;;;;;;4385283;32;19954;-73
2022/08/07 00:17:59;;;;;;;;;;;16.20;98.80;;;;;;4399129;32;19941;-73
2022/08/07 00:20:25;;;;;;;;;;;16.20;99.00;;;;;;4400397;32;20255;-73
2022/08/07 00:22:50;;;;;;;;;;;16.20;99.20;;;;;;4401170;32;20294;-73
2022/08/07 00:25:16;;;;;;;;;;;16.20;99.30;;;;;;4399585;32;20401;-73
2022/08/07 00:27:41;;;;;;;;;;;16.10;99.50;;;;;;4400307;32;19962;-73
2022/08/07 00:30:07;;;;;;;;;;;16.20;99.50;;;;;;4401073;32;19960;-73
2022/08/07 00:32:32;;;;;;;;;;;16.10;99.60;;;;;;4400403;32;19957;-73
2022/08/07 00:34:58;;;;;;;;;;;16.10;99.70;;;;;;4400029;32;19945;-73
2022/08/07 00:37:25;;;;;;;;;;;16.00;99.90;;;;;;4400028;32;20361;-73
2022/08/07 00:39:52;;;;;;;;;;;16.00;99.90;;;;;;4400204;32;20326;-73
2022/08/07 00:42:18;;;;;;;;;;;16.00;99.90;;;;;;4399723;32;19945;-73
2022/08/07 00:44:44;;;;;;;;;;;15.90;99.90;;;;;;4393479;32;20294;-73
2022/08/07 00:47:10;;;;;;;;;;;15.80;99.90;;;;;;4399607;32;19950;-73
2022/08/07 00:49:35;;;;;;;;;;;15.80;99.90;;;;;;4400250;32;19950;-73
2022/08/07 00:52:04;;;;;;;;;;;15.70;99.90;;;;;;4399587;32;20013;-73
2022/08/07 00:54:29;;;;;;;;;;;15.80;99.90;;;;;;4406045;32;19960;-73
2022/08/07 00:56:54;;;;;;;;;;;15.80;99.90;;;;;;4415160;32;20008;-73
2022/08/07 00:59:20;;;;;;;;;;;15.90;99.90;;;;;;4410180;32;19950;-73
2022/08/07 01:01:47;;;;;;;;;;;15.70;99.90;;;;;;4400122;32;19949;-73
2022/08/07 01:04:14;;;;;;;;;;;15.60;99.90;;;;;;4399350;32;19958;-73
2022/08/07 01:06:39;;;;;;;;;;;15.80;99.90;;;;;;4399028;32;19949;-73
2022/08/07 01:09:05;;;;;;;;;;;15.80;99.90;;;;;;4399523;32;19965;-73
2022/08/07 01:11:30;;;;;;;;;;;15.60;99.90;;;;;;4399783;32;19953;-73
2022/08/07 01:13:56;;;;;;;;;;;15.50;99.90;;;;;;4389671;32;19956;-73
2022/08/07 01:16:21;;;;;;;;;;;15.50;99.90;;;;;;4384919;32;20004;-73
2022/08/07 01:18:47;;;;;;;;;;;15.50;99.90;;;;;;4384491;32;20008;-73
2022/08/07 01:21:14;;;;;;;;;;;15.40;99.90;;;;;;4384971;32;19953;-73
2022/08/07 01:23:40;;;;;;;;;;;15.50;99.90;;;;;;4384810;32;20009;-72
2022/08/07 01:26:07;;;;;;;;;;;15.50;99.90;;;;;;4390257;32;19984;-73
2022/08/07 01:28:32;;;;;;;;;;;15.40;99.90;;;;;;4400204;32;19956;-73
2022/08/07 01:30:59;;;;;;;;;;;15.20;99.90;;;;;;4400170;32;19949;-73
2022/08/07 01:33:24;;;;;;;;;;;15.20;99.90;;;;;;4400180;32;20386;-73
2022/08/07 01:35:50;;;;;;;;;;;15.30;99.90;;;;;;4398502;32;20068;-73
2022/08/07 01:38:16;;;;;;;;;;;15.30;99.90;;;;;;4399504;32;19954;-73
2022/08/07 01:40:42;;;;;;;;;;;15.20;99.90;;;;;;4399981;32;20002;-73
2022/08/07 01:43:07;;;;;;;;;;;15.30;99.90;;;;;;4397704;32;19961;-73
2022/08/07 01:45:33;;;;;;;;;;;15.30;99.90;;;;;;4394661;32;19951;-73
2022/08/07 01:47:58;;;;;;;;;;;15.40;99.90;;;;;;4399632;32;19945;-73
2022/08/07 01:50:25;;;;;;;;;;;15.20;99.90;;;;;;4400435;32;20401;-73
2022/08/07 01:52:52;;;;;;;;;;;15.10;99.90;;;;;;4398984;32;19953;-73
2022/08/07 01:55:18;;;;;;;;;;;15.00;99.90;;;;;;4391257;32;20342;-73
2022/08/07 01:57:44;;;;;;;;;;;15.00;99.90;;;;;;4398900;32;20000;-73
2022/08/07 02:00:11;;;;;;;;;;;15.00;99.90;;;;;;4399658;32;19957;-73
2022/08/07 02:02:40;;;;;;;;;;;15.00;99.90;;;;;;4400110;32;20287;-73
2022/08/07 02:05:07;;;;;;;;;;;15.00;99.90;;;;;;4398961;32;19942;-73
2022/08/07 02:07:35;;;;;;;;;;;15.10;99.90;;;;;;4399737;32;19957;-73
2022/08/07 02:10:01;;;;;;;;;;;14.90;99.90;;;;;;4399645;32;19949;-73
2022/08/07 02:12:29;;;;;;;;;;;14.80;99.90;;;;;;4398876;32;19949;-73
2022/08/07 02:14:55;;;;;;;;;;;14.80;99.90;;;;;;4400535;32;20358;-73
2022/08/07 02:17:22;;;;;;;;;;;14.80;99.90;;;;;;4398786;32;19954;-73
2022/08/07 02:19:47;;;;;;;;;;;14.90;99.90;;;;;;4400362;32;19946;-73
2022/08/07 02:22:14;;;;;;;;;;;15.00;99.90;;;;;;4399564;32;20377;-73
2022/08/07 02:24:42;;;;;;;;;;;15.10;99.90;;;;;;4398851;32;19949;-73
2022/08/07 02:27:08;;;;;;;;;;;15.10;99.90;;;;;;4399649;32;20005;-72
2022/08/07 02:29:34;;;;;;;;;;;15.10;99.90;;;;;;4399331;32;20001;-72
2022/08/07 02:32:00;;;;;;;;;;;15.10;99.90;;;;;;4399484;32;19946;-72
2022/08/07 02:34:27;;;;;;;;;;;15.00;99.90;;;;;;4398758;32;19954;-73
2022/08/07 02:36:53;;;;;;;;;;;14.90;99.90;;;;;;4398134;32;19946;-73
2022/08/07 02:39:19;;;;;;;;;;;14.70;99.90;;;;;;4398563;32;20017;-73
2022/08/07 02:41:45;;;;;;;;;;;14.60;99.90;;;;;;4398775;32;19957;-73
2022/08/07 02:44:46;;;;;;;;;;;14.60;99.90;;;;;;4391418;32;19950;-73
2022/08/07 02:47:11;;;;;;;;;;;14.70;99.90;;;;;;4397798;32;19960;-73
2022/08/07 02:49:37;;;;;;;;;;;14.60;99.90;;;;;;4398769;32;19949;-74
2022/08/07 02:52:05;;;;;;;;;;;14.60;99.90;;;;;;4398005;32;19993;-73
2022/08/07 02:54:32;;;;;;;;;;;14.50;99.90;;;;;;4405590;32;20012;-72
2022/08/07 02:56:59;;;;;;;;;;;14.60;99.90;;;;;;4413988;32;20360;-74
2022/08/07 02:59:26;;;;;;;;;;;14.50;99.90;;;;;;4414384;32;19963;-74
2022/08/07 03:01:52;;;;;;;;;;;14.60;99.90;;;;;;4414374;32;20330;-73
2022/08/07 03:04:17;;;;;;;;;;;14.50;99.90;;;;;;4414534;32;20346;-73
2022/08/07 03:06:44;;;;;;;;;;;14.50;99.90;;;;;;4398652;32;19945;-73
2022/08/07 03:09:09;;;;;;;;;;;14.50;99.90;;;;;;4399393;32;19950;-73
2022/08/07 03:11:35;;;;;;;;;;;14.50;99.90;;;;;;4398387;32;20359;-73
2022/08/07 03:14:02;;;;;;;;;;;14.50;99.90;;;;;;4398190;32;19949;-73
2022/08/07 03:16:28;;;;;;;;;;;14.60;99.90;;;;;;4383204;32;19950;-73
2022/08/07 03:18:54;;;;;;;;;;;14.60;99.90;;;;;;4383693;32;20026;-73
2022/08/07 03:21:19;;;;;;;;;;;14.50;99.90;;;;;;4394418;32;19942;-73
2022/08/07 03:23:46;;;;;;;;;;;14.50;99.90;;;;;;4399270;32;19956;-72
2022/08/07 03:26:13;;;;;;;;;;;14.40;99.90;;;;;;4398969;32;19961;-73
2022/08/07 03:28:39;;;;;;;;;;;14.40;99.90;;;;;;4401028;32;19953;-72
2022/08/07 03:31:21;;;;;;;;;;;14.40;99.90;;;;;;4401020;32;19950;-72
2022/08/07 03:33:47;;;;;;;;;;;14.40;99.90;;;;;;4401694;32;19969;-73
2022/08/07 03:36:13;;;;;;;;;;;14.40;99.90;;;;;;4400673;32;19942;-72
2022/08/07 03:38:40;;;;;;;;;;;14.40;99.90;;;;;;4401875;32;19959;-72
2022/08/07 03:41:06;;;;;;;;;;;14.40;99.90;;;;;;4400588;32;19957;-73
2022/08/07 03:43:32;;;;;;;;;;;14.40;99.90;;;;;;4401684;32;20421;-73
2022/08/07 03:45:58;;;;;;;;;;;14.30;99.90;;;;;;4399204;32;19953;-72
2022/08/07 03:48:24;;;;;;;;;;;14.30;99.90;;;;;;4401072;32;19964;-73
2022/08/07 03:50:51;;;;;;;;;;;14.30;99.90;;;;;;4400406;32;20365;-73
2022/08/07 03:53:16;;;;;;;;;;;14.30;99.90;;;;;;4401497;32;20035;-73
2022/08/07 03:55:42;;;;;;;;;;;14.40;99.90;;;;;;4400573;32;20429;-73
2022/08/07 03:58:07;;;;;;;;;;;14.50;99.90;;;;;;4400803;32;19950;-73
2022/08/07 04:00:34;;;;;;;;;;;14.50;99.90;;;;;;4399903;32;20369;-73
2022/08/07 04:02:59;;;;;;;;;;;14.50;99.90;;;;;;4401424;32;20379;-73
2022/08/07 04:05:25;;;;;;;;;;;14.50;99.90;;;;;;4399901;32;19952;-73
2022/08/07 04:07:50;;;;;;;;;;;14.50;99.90;;;;;;4400371;32;19957;-72
2022/08/07 04:10:17;;;;;;;;;;;14.40;99.90;;;;;;4401318;32;20405;-74
2022/08/07 04:12:42;;;;;;;;;;;14.30;99.90;;;;;;4400357;32;20465;-73
2022/08/07 04:15:08;;;;;;;;;;;14.40;99.90;;;;;;4400789;32;19953;-73
2022/08/07 04:17:34;;;;;;;;;;;14.40;99.90;;;;;;4400870;32;19958;-73
2022/08/07 04:19:59;;;;;;;;;;;14.50;99.90;;;;;;4401283;32;19953;-73
2022/08/07 04:22:25;;;;;;;;;;;14.60;99.90;;;;;;4399971;32;19960;-73
2022/08/07 04:24:50;;;;;;;;;;;14.60;99.90;;;;;;4399877;32;20390;-73
2022/08/07 04:27:16;;;;;;;;;;;14.70;99.90;;;;;;4401474;32;19949;-73
2022/08/07 04:29:43;;;;;;;;;;;14.70;99.90;;;;;;4400183;32;19956;-72
2022/08/07 04:32:09;;;;;;;;;;;14.70;99.90;;;;;;4401282;32;20010;-72
2022/08/07 04:34:35;;;;;;;;;;;14.70;99.90;;;;;;4401272;32;19945;-73
2022/08/07 04:37:00;;;;;;;;;;;14.80;99.90;;;;;;4399886;32;20353;-73
2022/08/07 04:39:28;;;;;;;;;;;14.90;99.90;;;;;;4399039;32;19945;-72
2022/08/07 04:41:53;;;;;;;;;;;15.00;99.90;;;;;;4403277;32;19953;-73
2022/08/07 04:44:19;;;;;;;;;;;14.90;99.90;;;;;;4415419;32;19960;-72
2022/08/07 04:46:51;;;;;;;;;;;15.00;99.90;;;;;;4398217;32;19945;-72
2022/08/07 04:49:25;;;;;;;;;;;15.00;99.90;;;;;;4400924;32;19941;-74
2022/08/07 04:52:11;;;;;;;;;;;15.20;99.90;;;;;;4406420;32;109415;-73
2022/08/07 04:54:46;;;;;;;;;;;15.30;99.90;;;;;;4403580;32;19949;-73
2022/08/07 04:57:13;;;;;;;;;;;15.40;99.90;;;;;;4415900;32;20365;-72
2022/08/07 04:59:42;;;;;;;;;;;15.40;99.90;;;;;;4400583;32;19957;-73
2022/08/07 05:02:26;;;;;;;;;;;15.50;99.90;;;;;;4411756;32;19945;-73
2022/08/07 05:04:57;;;;;;;;;;;15.60;99.90;;;;;;4400328;32;19955;-73
2022/08/07 05:07:29;;;;;;;;;;;15.70;99.90;;;;;;4399975;32;19953;-73
2022/08/07 05:09:56;;;;;;;;;;;15.70;99.90;;;;;;4399861;32;19998;-72
2022/08/07 05:12:25;;;;;;;;;;;15.80;99.90;;;;;;4400256;32;19950;-72
2022/08/07 05:14:51;;;;;;;;;;;15.80;99.90;;;;;;4399394;32;19946;-72
2022/08/07 05:17:17;;;;;;;;;;;15.80;99.90;;;;;;4401006;32;19949;-72
2022/08/07 05:19:47;;;;;;;;;;;16.00;99.90;;;;;;4400431;32;19953;-71
2022/08/07 05:22:14;;;;;;;;;;;16.00;99.90;;;;;;4400065;32;19946;-72
2022/08/07 05:24:40;;;;;;;;;;;16.00;99.90;;;;;;4400709;32;19942;-72
2022/08/07 05:27:07;;;;;;;;;;;16.10;99.90;;;;;;4399368;32;19995;-72
2022/08/07 05:29:33;;;;;;;;;;;16.20;99.90;;;;;;4399611;32;19956;-72
2022/08/07 05:31:59;;;;;;;;;;;16.30;99.90;;;;;;4399652;32;20354;-73
2022/08/07 05:34:25;;;;;;;;;;;16.40;99.90;;;;;;4399196;32;19953;-73
2022/08/07 05:36:51;;;;;;;;;;;16.50;99.90;;;;;;4399750;32;20000;-72
2022/08/07 05:39:18;;;;;;;;;;;16.60;99.90;;;;;;4400147;32;20004;-72
2022/08/07 05:41:46;;;;;;;;;;;16.60;99.90;;;;;;4400184;32;20354;-73
2022/08/07 05:44:11;;;;;;;;;;;16.70;99.90;;;;;;4399951;32;19949;-73
2022/08/07 05:46:37;;;;;;;;;;;16.80;99.90;;;;;;4398766;32;19956;-73
2022/08/07 05:49:04;;;;;;;;;;;16.80;99.90;;;;;;4403555;32;19954;-73
2022/08/07 05:51:29;;;;;;;;;;;16.80;99.90;;;;;;4414021;32;20028;-73
2022/08/07 05:53:54;;;;;;;;;;;16.90;99.90;;;;;;4415765;32;19969;-73
2022/08/07 05:56:20;;;;;;;;;;;17.00;99.90;;;;;;4415266;32;19963;-73
2022/08/07 05:58:47;;;;;;;;;;;17.10;99.90;;;;;;4401679;32;19999;-73
2022/08/07 06:01:14;;;;;;;;;;;17.20;99.90;;;;;;4399933;32;19960;-72
2022/08/07 06:03:42;;;;;;;;;;;17.20;99.90;;;;;;4400270;32;19945;-73
2022/08/07 06:06:07;;;;;;;;;;;17.30;99.90;;;;;;4398607;32;19949;-73
2022/08/07 06:08:33;;;;;;;;;;;17.40;99.90;;;;;;4399483;32;19949;-73
2022/08/07 06:10:59;;;;;;;;;;;17.60;99.40;;;;;;4399131;32;19958;-73
2022/08/07 06:13:24;;;;;;;;;;;17.70;98.90;;;;;;4400395;32;19975;-73
2022/08/07 06:15:50;;;;;;;;;;;17.80;98.50;;;;;;4399239;32;19961;-72
2022/08/07 06:18:16;;;;;;;;;;;17.90;97.40;;;;;;4398695;32;20397;-72
2022/08/07 06:20:43;;;;;;;;;;;18.00;97.60;;;;;;4399547;32;19996;-75
2022/08/07 06:23:09;;;;;;;;;;;18.00;97.90;;;;;;4398894;32;20366;-73
2022/08/07 06:25:34;;;;;;;;;;;18.10;97.90;;;;;;4399924;32;19953;-72
2022/08/07 06:28:01;;;;;;;;;;;18.20;97.40;;;;;;4399867;32;19955;-72
2022/08/07 06:30:26;;;;;;;;;;;18.20;96.60;;;;;;4398693;32;19941;-72
2022/08/07 06:32:52;;;;;;;;;;;18.30;96.50;;;;;;4398754;32;19949;-73
2022/08/07 06:35:18;;;;;;;;;;;18.40;95.50;;;;;;4398498;32;19942;-73
2022/08/07 06:37:44;;;;;;;;;;;18.40;95.70;;;;;;4398795;32;19957;-72
2022/08/07 06:40:09;;;;;;;;;;;18.40;95.80;;;;;;4398887;32;20336;-73
2022/08/07 06:42:36;;;;;;;;;;;18.40;96.10;;;;;;4398542;32;19968;-73
2022/08/07 06:45:04;;;;;;;;;;;18.40;95.60;;;;;;4398949;32;19956;-73
2022/08/07 06:47:29;;;;;;;;;;;18.50;95.60;;;;;;4399440;32;19954;-73
2022/08/07 06:49:55;;;;;;;;;;;18.60;94.90;;;;;;4398326;32;19999;-73
2022/08/07 06:52:21;;;;;;;;;;;18.70;94.80;;;;;;4398608;32;19950;-72
2022/08/07 06:54:48;;;;;;;;;;;18.70;94.20;;;;;;4400181;32;19969;-73
2022/08/07 06:57:14;;;;;;;;;;;18.90;94.40;;;;;;4399226;32;19952;-72
2022/08/07 06:59:40;;;;;;;;;;;19.00;94.10;;;;;;4397846;32;19938;-73
2022/08/07 07:02:07;;;;;;;;;;;19.00;93.50;;;;;;4398904;32;19942;-73
2022/08/07 07:04:32;;;;;;;;;;;19.00;93.10;;;;;;4401180;32;19967;-73
2022/08/07 07:06:58;;;;;;;;;;;19.10;93.20;;;;;;4400600;32;19941;-73
2022/08/07 07:09:24;;;;;;;;;;;19.20;92.60;;;;;;4400774;32;19945;-73
2022/08/07 07:12:00;;;;;;;;;;;19.30;92.70;;;;;;4401451;32;20363;-73
2022/08/07 07:14:27;;;;;;;;;;;19.40;92.20;;;;;;4386729;32;20474;-73
2022/08/07 07:16:55;;;;;;;;;;;19.50;92.20;;;;;;4401266;32;20365;-73
2022/08/07 07:19:24;;;;;;;;;;;19.50;92.10;;;;;;4401956;32;19989;-72
2022/08/07 07:21:51;;;;;;;;;;;19.50;91.80;;;;;;4402371;32;19957;-73
2022/08/07 07:24:16;;;;;;;;;;;19.50;91.90;;;;;;4401593;32;19953;-72
2022/08/07 07:26:43;;;;;;;;;;;19.60;92.00;;;;;;4400993;32;20346;-73
2022/08/07 07:29:10;;;;;;;;;;;19.70;91.50;;;;;;4400575;32;19960;-72
2022/08/07 07:31:39;;;;;;;;;;;19.70;91.00;;;;;;4401056;32;19941;-73
2022/08/07 07:34:06;;;;;;;;;;;19.70;91.30;;;;;;4401535;32;20063;-72
2022/08/07 07:36:33;;;;;;;;;;;19.80;91.20;;;;;;4399880;32;19942;-73
2022/08/07 07:39:00;;;;;;;;;;;20.00;90.80;;;;;;4402127;32;20017;-73
2022/08/07 07:41:27;;;;;;;;;;;20.20;90.60;;;;;;4401645;32;19953;-73
2022/08/07 07:43:54;;;;;;;;;;;20.40;90.30;;;;;;4401015;32;19945;-73
2022/08/07 07:46:22;;;;;;;;;;;20.50;89.40;;;;;;4401513;32;20357;-73
2022/08/07 07:48:49;;;;;;;;;;;20.60;89.70;;;;;;4401596;32;19953;-72
2022/08/07 07:51:17;;;;;;;;;;;20.60;88.00;;;;;;4400850;32;19960;-73
2022/08/07 07:53:44;;;;;;;;;;;20.80;88.00;;;;;;4400394;32;19953;-73
2022/08/07 07:56:11;;;;;;;;;;;20.80;88.10;;;;;;4401370;32;20205;-73
2022/08/07 07:58:37;;;;;;;;;;;20.90;87.30;;;;;;4400258;32;19972;-73
2022/08/07 08:01:03;;;;;;;;;;;21.00;88.00;;;;;;4401084;32;19949;-73
2022/08/07 08:03:30;;;;;;;;;;;21.10;87.20;;;;;;4400445;32;19957;-75
2022/08/07 08:05:55;;;;;;;;;;;21.10;86.50;;;;;;4399612;32;20275;-73
2022/08/07 08:08:24;;;;;;;;;;;21.00;86.00;;;;;;4400689;32;19990;-73
2022/08/07 08:10:50;;;;;;;;;;;20.90;86.90;;;;;;4400025;32;19965;-73
2022/08/07 08:13:16;;;;;;;;;;;21.00;86.50;;;;;;4400319;32;19938;-73
2022/08/07 08:15:42;;;;;;;;;;;21.20;86.90;;;;;;4400762;32;19965;-73
2022/08/07 08:18:09;;;;;;;;;;;21.40;85.50;;;;;;4401177;32;19949;-73
2022/08/07 08:20:35;;;;;;;;;;;21.30;85.30;;;;;;4399805;32;19946;-72
2022/08/07 08:27:22;;;;;;;;;;;21.50;83.90;;;;;;4388350;32;20004;-72
2022/08/07 08:28:37;;;;;;;;;;;21.30;84.50;;;;;;4388656;32;19952;-72
2022/08/07 08:31:03;;;;;;;;;;;21.40;84.90;;;;;;4400816;32;19964;-72
2022/08/07 08:33:30;;;;;;;;;;;21.60;83.90;;;;;;4401297;32;19956;-72
2022/08/07 08:35:56;;;;;;;;;;;21.40;84.30;;;;;;4400023;32;19946;-74
2022/08/07 08:38:25;;;;;;;;;;;21.60;84.90;;;;;;4400472;32;20417;-73
2022/08/07 08:41:10;;;;;;;;;;;21.70;83.40;;;;;;4400701;32;20004;-73
2022/08/07 08:43:43;;;;;;;;;;;21.80;83.80;;;;;;4388997;32;20400;-72
2022/08/07 08:46:11;;;;;;;;;;;21.80;84.50;;;;;;4399940;32;19942;-72
2022/08/07 08:48:39;;;;;;;;;;;22.00;83.90;;;;;;4387145;32;19992;-73
2022/08/07 08:51:07;;;;;;;;;;;22.20;82.70;;;;;;4393527;32;20002;-73
2022/08/07 08:53:41;;;;;;;;;;;22.30;82.00;;;;;;4400079;32;19941;-72
2022/08/07 08:56:10;;;;;;;;;;;22.30;82.30;;;;;;4401329;32;20014;-72
2022/08/07 08:58:56;;;;;;;;;;;22.40;82.00;;;;;;4401011;32;20014;-72
2022/08/07 09:01:22;;;;;;;;;;;22.40;80.90;;;;;;4389658;32;19959;-72
2022/08/07 09:03:53;;;;;;;;;;;22.30;80.70;;;;;;4399560;32;19990;-73
2022/08/07 09:06:25;;;;;;;;;;;22.50;81.50;;;;;;4398540;32;19954;-73
2022/08/07 09:09:10;;;;;;;;;;;22.60;80.50;;;;;;4400579;32;19945;-73
2022/08/07 09:11:44;;;;;;;;;;;22.80;80.10;;;;;;4389901;32;19949;-73
2022/08/07 09:14:19;;;;;;;;;;;22.90;79.30;;;;;;4400998;32;19950;-73
2022/08/07 09:16:47;;;;;;;;;;;22.70;77.50;;;;;;4400510;32;19957;-73
2022/08/07 09:19:22;;;;;;;;;;;22.20;78.70;;;;;;4398228;32;20390;-73
2022/08/07 09:21:58;;;;;;;;;;;22.10;80.30;;;;;;4399449;32;19962;-73
2022/08/07 09:24:29;;;;;;;;;;;22.20;80.60;;;;;;4386070;32;20273;-73
2022/08/07 09:27:01;;;;;;;;;;;22.30;79.30;;;;;;4400347;32;20290;-73
2022/08/07 09:29:32;;;;;;;;;;;22.20;80.00;;;;;;4399520;32;20011;-73
2022/08/07 09:32:05;;;;;;;;;;;22.10;79.30;;;;;;4399717;32;20233;-73
2022/08/07 09:34:40;;;;;;;;;;;21.80;80.40;;;;;;4399721;32;20105;-72
2022/08/07 09:37:10;;;;;;;;;;;21.60;80.60;;;;;;4398195;32;19957;-73
2022/08/07 09:39:45;;;;;;;;;;;21.50;81.00;;;;;;4401085;32;20381;-73
2022/08/07 09:42:16;;;;;;;;;;;21.50;81.00;;;;;;4399440;32;20289;-73
2022/08/07 09:44:47;;;;;;;;;;;21.50;80.60;;;;;;4401166;32;19953;-73
2022/08/07 09:47:17;;;;;;;;;;;21.50;80.80;;;;;;4399874;32;19949;-73
2022/08/07 09:50:00;;;;;;;;;;;21.40;81.70;;;;;;4398619;32;19953;-73
2022/08/07 09:52:29;;;;;;;;;;;21.40;82.80;;;;;;4400589;32;19967;-73
2022/08/07 09:55:03;;;;;;;;;;;21.50;82.30;;;;;;4399889;32;20531;-73
2022/08/07 09:57:44;;;;;;;;;;;21.60;82.40;;;;;;4399959;32;19992;-73
2022/08/07 10:00:12;;;;;;;;;;;21.90;80.80;;;;;;4399792;32;19964;-73
2022/08/07 10:02:58;;;;;;;;;;;22.40;80.90;;;;;;4400050;32;19945;-73
2022/08/07 10:05:43;;;;;;;;;;;22.70;79.30;;;;;;4387263;32;20310;-72
2022/08/07 10:08:29;;;;;;;;;;;23.40;78.10;;;;;;4387865;32;19942;-74
2022/08/07 10:11:01;;;;;;;;;;;23.60;75.80;;;;;;4387650;32;20303;-72
2022/08/07 10:13:28;;;;;;;;;;;24.10;75.00;;;;;;4400230;32;19953;-72
2022/08/07 10:15:58;;;;;;;;;;;24.30;74.80;;;;;;4399266;32;19949;-72
2022/08/07 10:18:33;;;;;;;;;;;24.30;74.20;;;;;;4399642;32;19956;-73
2022/08/07 10:21:07;;;;;;;;;;;24.50;74.50;;;;;;4400230;32;20282;-72
2022/08/07 10:23:35;;;;;;;;;;;24.90;72.40;;;;;;4400082;32;19946;-73
2022/08/07 10:26:12;;;;;;;;;;;24.90;70.80;;;;;;4399500;32;19968;-73
2022/08/07 10:28:53;;;;;;;;;;;24.30;71.30;;;;;;4398844;32;19955;-73
2022/08/07 10:31:38;;;;;;;;;;;24.00;73.70;;;;;;4399781;32;19953;-73
2022/08/07 10:34:07;;;;;;;;;;;23.80;73.00;;;;;;4398510;32;19949;-73
2022/08/07 10:36:52;;;;;;;;;;;23.80;74.10;;;;;;4398591;32;19977;-72
2022/08/07 10:39:38;;;;;;;;;;;23.80;73.70;;;;;;4399131;32;20295;-72
2022/08/07 10:42:04;;;;;;;;;;;23.80;72.30;;;;;;4397702;32;19995;-73
2022/08/07 10:44:34;;;;;;;;;;;24.20;71.30;;;;;;4392977;32;19956;-72
2022/08/07 10:47:19;;;;;;;;;;;24.70;71.20;;;;;;4399425;32;20015;-73
2022/08/07 10:49:49;;;;;;;;;;;25.50;69.60;;;;;;4397613;32;19956;-73
2022/08/07 10:52:18;;;;;;;;;;;26.00;66.80;;;;;;4383407;32;20326;-73
2022/08/07 10:54:45;;;;;;;;;;;26.00;67.60;;;;;;4383637;32;19946;-73
2022/08/07 10:57:18;;;;;;;;;;;26.30;66.60;;;;;;4385941;32;20381;-72
2022/08/07 10:59:52;;;;;;;;;;;25.90;65.80;;;;;;4398133;32;19946;-73
2022/08/07 11:02:38;;;;;;;;;;;25.70;66.20;;;;;;4398469;32;19942;-73
2022/08/07 11:05:11;;;;;;;;;;;25.90;67.00;;;;;;4397250;32;19994;-73
2022/08/07 11:07:57;;;;;;;;;;;25.70;67.30;;;;;;4398934;32;20327;-73
2022/08/07 11:10:25;;;;;;;;;;;25.40;66.60;;;;;;4397064;32;19952;-73
2022/08/07 11:13:02;;;;;;;;;;;25.00;67.90;;;;;;4398063;32;19946;-72
2022/08/07 11:15:30;;;;;;;;;;;24.70;68.00;;;;;;4385005;32;19982;-72
2022/08/07 11:18:04;;;;;;;;;;;24.60;68.80;;;;;;4399336;32;19949;-73
2022/08/07 11:20:35;;;;;;;;;;;24.50;68.60;;;;;;4399419;32;20039;-73
2022/08/07 11:23:13;;;;;;;;;;;24.30;68.80;;;;;;4397746;32;19949;-73
2022/08/07 11:25:43;;;;;;;;;;;24.40;70.30;;;;;;4400383;32;19964;-72
2022/08/07 11:28:13;;;;;;;;;;;24.60;69.10;;;;;;4399400;32;19953;-73
2022/08/07 11:30:52;;;;;;;;;;;25.10;68.10;;;;;;4398380;32;19949;-73
2022/08/07 11:33:37;;;;;;;;;;;25.60;66.70;;;;;;4399271;32;19949;-73
2022/08/07 11:36:15;;;;;;;;;;;26.30;65.40;;;;;;4387319;32;19945;-74
2022/08/07 11:39:00;;;;;;;;;;;26.40;64.30;;;;;;4399127;32;20004;-73
2022/08/07 11:41:28;;;;;;;;;;;26.00;64.20;;;;;;4386687;32;19945;-73
2022/08/07 11:44:05;;;;;;;;;;;25.50;65.20;;;;;;4398878;32;20061;-73
2022/08/07 11:46:35;;;;;;;;;;;24.80;66.50;;;;;;4398559;32;19952;-73
2022/08/07 11:49:13;;;;;;;;;;;24.40;67.50;;;;;;4398835;32;20013;-73
2022/08/07 11:51:42;;;;;;;;;;;24.50;67.70;;;;;;4400371;32;20333;-73
2022/08/07 11:54:28;;;;;;;;;;;24.60;67.00;;;;;;4401553;32;19942;-73
2022/08/07 11:56:58;;;;;;;;;;;24.60;66.70;;;;;;4399312;32;19966;-73
2022/08/07 11:59:31;;;;;;;;;;;24.50;67.20;;;;;;4400908;32;19950;-73
2022/08/07 12:02:17;;;;;;;;;;;24.50;69.10;;;;;;4400373;32;19961;-73
2022/08/07 12:04:49;;;;;;;;;;;24.30;67.60;;;;;;4388744;32;20008;-73
2022/08/07 12:07:33;;;;;;;;;;;24.10;67.80;;;;;;4400245;32;20307;-73
2022/08/07 12:10:02;;;;;;;;;;;24.10;68.40;;;;;;4400014;32;19946;-73
2022/08/07 12:12:35;;;;;;;;;;;24.20;69.10;;;;;;4400076;32;20000;-73
2022/08/07 12:15:04;;;;;;;;;;;24.20;68.00;;;;;;4399891;32;19937;-73
2022/08/07 12:17:35;;;;;;;;;;;24.10;68.70;;;;;;4401344;32;20021;-73
2022/08/07 12:20:05;;;;;;;;;;;24.30;69.30;;;;;;4401139;32;20004;-73
2022/08/07 12:22:47;;;;;;;;;;;24.30;68.20;;;;;;4400265;32;19949;-73
2022/08/07 12:26:18;;;;;;;;;;;24.30;68.40;;;;;;4400162;32;19959;-73
2022/08/07 12:28:08;;;;;;;;;;;25.10;66.30;;;;;;4388838;32;20298;-73
2022/08/07 12:30:36;;;;;;;;;;;24.90;66.00;;;;;;4401226;32;19942;-73
2022/08/07 12:33:04;;;;;;;;;;;25.10;67.30;;;;;;4400717;32;19949;-73
2022/08/07 12:35:30;;;;;;;;;;;24.90;67.30;;;;;;4401263;32;19957;-73
2022/08/07 12:37:56;;;;;;;;;;;24.90;67.00;;;;;;4399772;32;19945;-73
2022/08/07 12:40:24;;;;;;;;;;;24.80;67.30;;;;;;4400202;32;19987;-73
2022/08/07 12:42:51;;;;;;;;;;;24.50;68.00;;;;;;4401125;32;19999;-73
2022/08/07 12:45:19;;;;;;;;;;;24.90;66.50;;;;;;4400426;32;19963;-73
2022/08/07 12:47:53;;;;;;;;;;;25.20;65.40;;;;;;4400177;32;19942;-74
2022/08/07 12:50:24;;;;;;;;;;;25.10;66.10;;;;;;4400558;32;19949;-73
2022/08/07 12:52:54;;;;;;;;;;;25.70;65.50;;;;;;4384913;32;19964;-73
2022/08/07 12:55:26;;;;;;;;;;;26.60;63.70;;;;;;4384492;32;19958;-73
2022/08/07 12:57:52;;;;;;;;;;;27.70;61.70;;;;;;4385313;32;19958;-74
2022/08/07 13:00:18;;;;;;;;;;;28.60;59.60;;;;;;4398821;32;19953;-73
2022/08/07 13:02:55;;;;;;;;;;;29.30;57.00;;;;;;4400145;32;19954;-74
2022/08/07 13:05:29;;;;;;;;;;;29.40;56.70;;;;;;4400546;32;20279;-73
2022/08/07 13:08:14;;;;;;;;;;;28.70;57.80;;;;;;4400021;32;19949;-73
2022/08/07 13:10:42;;;;;;;;;;;29.10;58.10;;;;;;4389625;32;19960;-73
2022/08/07 13:13:16;;;;;;;;;;;30.40;56.90;;;;;;4400962;32;20009;-73
2022/08/07 13:16:01;;;;;;;;;;;30.30;55.40;;;;;;4399630;32;20365;-73
2022/08/07 13:18:46;;;;;;;;;;;30.90;55.00;;;;;;4388635;32;19960;-74
2022/08/07 13:21:15;;;;;;;;;;;31.30;53.90;;;;;;4373533;32;19953;-74
2022/08/07 13:23:50;;;;;;;;;;;31.50;53.90;;;;;;4385642;32;19954;-72
2022/08/07 13:26:21;;;;;;;;;;;32.00;53.80;;;;;;4389681;32;19946;-73
2022/08/07 13:28:50;;;;;;;;;;;31.80;52.90;;;;;;4400529;32;20016;-73
2022/08/07 13:31:17;;;;;;;;;;;32.20;52.00;;;;;;4400211;32;19945;-73
2022/08/07 13:33:47;;;;;;;;;;;32.60;51.00;;;;;;4399507;32;19959;-73
2022/08/07 13:36:15;;;;;;;;;;;32.20;51.20;;;;;;4398467;32;20368;-73
2022/08/07 13:38:45;;;;;;;;;;;32.00;51.80;;;;;;4400554;32;20012;-73
2022/08/07 13:41:33;;;;;;;;;;;32.30;51.40;;;;;;4399246;32;19946;-73
2022/08/07 13:44:00;;;;;;;;;;;32.20;51.60;;;;;;4389328;32;19949;-74
2022/08/07 13:46:28;;;;;;;;;;;32.00;52.10;;;;;;4399789;32;19957;-74
2022/08/07 13:48:55;;;;;;;;;;;31.50;51.20;;;;;;4400529;32;20365;-74
2022/08/07 13:51:24;;;;;;;;;;;31.10;52.90;;;;;;4393213;32;19943;-74
2022/08/07 13:53:52;;;;;;;;;;;31.30;51.60;;;;;;4393695;32;19953;-74
2022/08/07 13:56:20;;;;;;;;;;;30.70;53.10;;;;;;4400587;32;19945;-73
2022/08/07 13:59:04;;;;;;;;;;;30.60;52.60;;;;;;4399147;32;19960;-73
2022/08/07 14:01:49;;;;;;;;;;;30.70;52.80;;;;;;4399129;32;19960;-73
2022/08/07 14:04:15;;;;;;;;;;;31.30;51.70;;;;;;4387793;32;19957;-73
2022/08/07 14:06:43;;;;;;;;;;;31.50;50.80;;;;;;4398998;32;20382;-73
2022/08/07 14:09:14;;;;;;;;;;;30.70;51.00;;;;;;4400941;32;19979;-73
2022/08/07 14:11:43;;;;;;;;;;;30.00;52.30;;;;;;4400111;32;20373;-72
2022/08/07 14:14:10;;;;;;;;;;;30.00;52.30;;;;;;4398630;32;20276;-73
2022/08/07 14:16:38;;;;;;;;;;;29.50;53.20;;;;;;4399849;32;20309;-73
2022/08/07 14:19:10;;;;;;;;;;;29.50;52.50;;;;;;4399997;32;19949;-73
2022/08/07 14:21:42;;;;;;;;;;;29.50;52.10;;;;;;4399811;32;19960;-73
2022/08/07 14:24:10;;;;;;;;;;;30.60;52.00;;;;;;4399858;32;19960;-73
2022/08/07 14:26:39;;;;;;;;;;;31.80;51.20;;;;;;4399051;32;19949;-73
2022/08/07 14:29:08;;;;;;;;;;;31.40;52.50;;;;;;4399678;32;19960;-73
2022/08/07 14:31:34;;;;;;;;;;;30.70;50.40;;;;;;4400278;32;19956;-73